Terminal Aerodrome Forecast
Issued by NWS

Home | Current Version | Previous Version | Text Only | Print | Product List | Glossary On
Versions: 1 2 3 4 5 6 7 8 9 10 11 12 13 14 15 16
000
FTUS43 KILX 221100 AAA
TAFBMI
TAF AMD
KBMI 221101Z 2211/2306 20007KT P6SM SKC
      TEMPO 2211/2212 5SM BR
     FM221500 20012KT P6SM BKN250
     FM222000 21013KT P6SM SCT050 BKN250
     FM230200 24006KT P6SM VCTS SCT050CB BKN250=

USA.gov is the U.S. government's official web portal to all federal, state and local government web resources and services.